createdAt,value
2023-05-19T00:01:25.850Z,6.32
2023-05-19T00:03:57.615Z,5.10
2023-05-19T00:06:27.320Z,3.67
2023-05-19T00:09:03.388Z,8.88
2023-05-19T00:11:30.822Z,3.17
2023-05-19T00:14:00.224Z,4.28
2023-05-19T00:16:29.512Z,4.75
2023-05-19T00:19:00.267Z,3.28
2023-05-19T00:21:28.103Z,3.20
2023-05-19T00:23:55.764Z,2.35
2023-05-19T00:26:23.558Z,3.45
2023-05-19T00:28:51.139Z,4.47
2023-05-19T00:31:18.152Z,3.25
2023-05-19T00:33:45.512Z,4.07
2023-05-19T00:36:12.984Z,2.75
2023-05-19T00:38:40.078Z,3.42
2023-05-19T00:41:07.825Z,3.78
2023-05-19T00:43:34.950Z,3.60
2023-05-19T00:46:03.206Z,3.75
2023-05-19T00:48:30.479Z,2.75
2023-05-19T00:51:04.247Z,3.40
2023-05-19T00:53:33.568Z,4.40
2023-05-19T00:56:02.243Z,4.55
2023-05-19T00:58:30.798Z,3.60
2023-05-19T01:01:07.858Z,4.05
2023-05-19T01:03:36.302Z,6.45
2023-05-19T01:06:07.970Z,3.92
2023-05-19T01:08:37.681Z,7.45
2023-05-19T01:11:07.023Z,4.70
2023-05-19T01:13:36.369Z,4.30
2023-05-19T01:16:36.598Z,4.00
2023-05-19T01:19:25.538Z,4.75
2023-05-19T01:22:26.309Z,6.10
2023-05-19T01:25:33.441Z,3.65
2023-05-19T01:28:15.834Z,3.78
2023-05-19T01:30:45.439Z,3.70
2023-05-19T01:33:15.251Z,3.97
2023-05-19T01:35:44.199Z,5.03
2023-05-19T01:38:14.836Z,5.45
2023-05-19T01:40:43.796Z,4.63
2023-05-19T01:43:27.155Z,5.50
2023-05-19T01:45:57.462Z,3.90
2023-05-19T01:48:25.600Z,6.03
2023-05-19T01:50:52.794Z,3.67
2023-05-19T01:53:19.848Z,2.95
2023-05-19T01:55:50.979Z,2.97
2023-05-19T01:58:41.531Z,5.07
2023-05-19T02:01:11.364Z,3.83
2023-05-19T02:04:14.986Z,4.28
2023-05-19T02:07:03.619Z,4.97
2023-05-19T02:09:42.456Z,13.20
2023-05-19T02:12:30.693Z,5.97
2023-05-19T02:15:15.667Z,7.40
2023-05-19T02:17:51.819Z,5.70
2023-05-19T02:20:19.490Z,6.40
2023-05-19T02:22:46.609Z,6.53
2023-05-19T02:25:13.971Z,10.75
2023-05-19T02:27:42.051Z,6.57
2023-05-19T02:30:10.322Z,9.43
2023-05-19T02:32:37.731Z,6.03
2023-05-19T02:35:05.557Z,8.85
2023-05-19T02:37:32.678Z,10.80
2023-05-19T02:39:59.850Z,6.95
2023-05-19T02:42:26.958Z,5.32
2023-05-19T02:44:55.309Z,5.05
2023-05-19T02:47:22.412Z,4.28
2023-05-19T02:49:49.531Z,7.47
2023-05-19T02:52:16.657Z,6.90
2023-05-19T02:54:43.771Z,5.80
2023-05-19T02:57:11.303Z,5.63
2023-05-19T02:59:38.396Z,5.68
2023-05-19T03:02:05.532Z,6.00
2023-05-19T03:04:32.714Z,13.80
2023-05-19T03:06:59.789Z,6.35
2023-05-19T03:09:27.020Z,10.25
2023-05-19T03:11:54.061Z,7.00
2023-05-19T03:14:24.031Z,5.57
2023-05-19T03:16:51.594Z,8.88
2023-05-19T03:19:18.819Z,6.18
2023-05-19T03:21:46.394Z,4.82
2023-05-19T03:24:13.874Z,7.82
2023-05-19T03:26:42.120Z,5.88
2023-05-19T03:29:09.164Z,6.70
2023-05-19T03:31:36.384Z,4.90
2023-05-19T03:34:03.617Z,6.10
2023-05-19T03:36:32.306Z,7.63
2023-05-19T03:38:59.679Z,4.72
2023-05-19T03:41:26.706Z,5.40
2023-05-19T03:43:53.729Z,3.90
2023-05-19T03:46:21.030Z,5.82
2023-05-19T03:48:48.207Z,5.32
2023-05-19T03:51:15.334Z,6.90
2023-05-19T03:53:42.554Z,5.13
2023-05-19T03:56:13.919Z,8.38
2023-05-19T03:58:45.065Z,4.93
2023-05-19T04:01:12.262Z,5.65
2023-05-19T04:03:39.321Z,10.15
2023-05-19T04:06:06.824Z,6.10
2023-05-19T04:08:33.962Z,5.68
2023-05-19T04:11:01.504Z,3.95
2023-05-19T04:13:28.626Z,7.72
2023-05-19T04:15:56.078Z,7.43
2023-05-19T04:18:23.394Z,4.55
2023-05-19T04:20:51.217Z,5.15
2023-05-19T04:23:18.258Z,4.47
2023-05-19T04:25:45.380Z,3.97
2023-05-19T04:28:13.019Z,5.93
2023-05-19T04:30:40.317Z,4.60
2023-05-19T04:33:07.761Z,6.20
2023-05-19T04:35:35.242Z,5.20
2023-05-19T04:38:02.874Z,3.72
2023-05-19T04:40:31.512Z,3.92
2023-05-19T04:42:59.160Z,2.97
2023-05-19T04:45:26.395Z,5.28
2023-05-19T04:47:57.909Z,5.72
2023-05-19T04:50:25.406Z,3.83
2023-05-19T04:52:52.507Z,3.85
2023-05-19T04:55:19.793Z,3.42
2023-05-19T04:57:47.049Z,3.95
2023-05-19T05:00:14.833Z,3.70
2023-05-19T05:02:43.071Z,4.65
2023-05-19T05:05:10.332Z,2.85
2023-05-19T05:07:37.416Z,3.42
2023-05-19T05:10:05.392Z,4.50
2023-05-19T05:12:33.110Z,4.25
2023-05-19T05:15:00.576Z,4.93
2023-05-19T05:17:28.359Z,6.78
2023-05-19T05:19:56.008Z,4.20
2023-05-19T05:22:23.492Z,4.60
2023-05-19T05:24:50.997Z,7.88
2023-05-19T05:27:18.133Z,3.95
2023-05-19T05:29:45.334Z,8.00
2023-05-19T05:32:12.432Z,6.68
2023-05-19T05:34:41.113Z,6.47
2023-05-19T05:37:08.182Z,6.78
2023-05-19T05:39:35.407Z,6.40
2023-05-19T05:42:02.668Z,5.10
2023-05-19T05:44:29.886Z,5.67
2023-05-19T05:46:57.413Z,4.30
2023-05-19T05:49:24.900Z,3.10
2023-05-19T05:52:04.922Z,4.90
2023-05-19T05:54:33.953Z,4.03
2023-05-19T05:57:02.647Z,6.28
2023-05-19T05:59:29.802Z,8.53
2023-05-19T06:01:56.885Z,3.50
2023-05-19T06:04:25.721Z,4.50
2023-05-19T06:06:52.820Z,5.65
2023-05-19T06:09:20.067Z,4.65
2023-05-19T06:11:47.191Z,3.92
2023-05-19T06:14:14.234Z,4.55
2023-05-19T06:16:41.690Z,2.85
2023-05-19T06:19:08.877Z,7.68
2023-05-19T06:21:35.952Z,4.70
2023-05-19T06:24:03.102Z,4.60
2023-05-19T06:26:30.182Z,5.20
2023-05-19T06:28:57.553Z,3.38
2023-05-19T06:31:26.575Z,5.20
2023-05-19T06:33:53.890Z,3.47
2023-05-19T06:36:21.098Z,3.55
2023-05-19T06:38:48.187Z,3.78
2023-05-19T06:41:15.332Z,4.07
2023-05-19T06:43:43.291Z,4.32
2023-05-19T06:46:12.236Z,3.83
2023-05-19T06:48:39.556Z,3.05
2023-05-19T06:51:06.714Z,4.88
2023-05-19T06:53:35.023Z,4.88
2023-05-19T06:56:02.091Z,5.05
2023-05-19T06:58:29.141Z,3.53
2023-05-19T07:00:56.434Z,6.15
2023-05-19T07:03:23.575Z,5.82
2023-05-19T07:05:51.054Z,6.68
2023-05-19T07:08:18.074Z,3.67
2023-05-19T07:10:45.157Z,3.65
2023-05-19T07:13:12.241Z,5.78
2023-05-19T07:15:39.513Z,5.90
2023-05-19T07:18:06.628Z,3.95
2023-05-19T07:20:34.031Z,3.45
2023-05-19T07:23:02.746Z,4.97
2023-05-19T07:25:30.698Z,5.45
2023-05-19T07:27:57.883Z,6.65
2023-05-19T07:30:27.955Z,3.05
2023-05-19T07:32:55.581Z,4.70
2023-05-19T07:35:23.055Z,3.45
2023-05-19T07:37:52.642Z,9.63
2023-05-19T07:40:19.895Z,5.95
2023-05-19T07:42:48.142Z,5.57
2023-05-19T07:45:15.182Z,6.47
2023-05-19T07:47:42.360Z,4.72
2023-05-19T07:50:09.649Z,6.05
2023-05-19T07:52:36.770Z,5.05
2023-05-19T07:55:04.209Z,4.38
2023-05-19T07:57:32.464Z,10.25
2023-05-19T07:59:59.535Z,4.43
2023-05-19T08:02:26.708Z,6.03
2023-05-19T08:04:54.312Z,3.22
2023-05-19T08:07:21.502Z,7.28
2023-05-19T08:09:51.509Z,12.27
2023-05-19T08:12:18.663Z,4.65
2023-05-19T08:14:46.018Z,4.18
2023-05-19T08:17:13.098Z,5.68
2023-05-19T08:19:40.326Z,6.72
2023-05-19T08:22:07.389Z,8.48
2023-05-19T08:24:34.621Z,8.40
2023-05-19T08:27:01.664Z,14.93
2023-05-19T08:29:28.725Z,6.82
2023-05-19T08:31:55.911Z,8.55
2023-05-19T08:34:22.977Z,6.07
2023-05-19T08:36:50.222Z,5.75
2023-05-19T08:39:19.640Z,5.97
2023-05-19T08:41:46.850Z,5.80
2023-05-19T08:44:13.924Z,8.07
2023-05-19T08:46:41.826Z,6.55
2023-05-19T08:49:13.506Z,8.30
2023-05-19T08:52:23.370Z,7.40
2023-05-19T08:55:01.016Z,6.10
2023-05-19T08:57:28.801Z,7.45
2023-05-19T08:59:56.721Z,6.38
2023-05-19T09:02:24.397Z,6.63
2023-05-19T09:04:52.806Z,8.82
2023-05-19T09:07:21.992Z,5.82
2023-05-19T09:09:49.551Z,9.32
2023-05-19T09:12:16.576Z,7.30
2023-05-19T09:14:44.038Z,11.65
2023-05-19T09:17:11.176Z,7.70
2023-05-19T09:19:44.539Z,8.77
2023-05-19T09:22:12.109Z,8.60
2023-05-19T09:24:40.531Z,8.68
2023-05-19T09:27:09.116Z,7.55
2023-05-19T09:29:36.143Z,16.95
2023-05-19T09:32:06.232Z,10.93
2023-05-19T09:34:33.407Z,10.60
2023-05-19T09:37:00.599Z,8.98
2023-05-19T09:39:28.893Z,13.93
2023-05-19T09:41:58.737Z,9.88
2023-05-19T09:44:31.238Z,13.48
2023-05-19T09:46:58.969Z,9.75
2023-05-19T09:49:30.531Z,12.10
2023-05-19T09:51:59.663Z,11.57
2023-05-19T09:54:31.998Z,15.43
2023-05-19T09:57:01.011Z,10.75
2023-05-19T09:59:32.047Z,10.18
2023-05-19T10:02:01.551Z,13.68
2023-05-19T10:04:30.459Z,12.02
2023-05-19T10:07:01.713Z,9.60
2023-05-19T10:09:29.934Z,10.20
2023-05-19T10:11:58.892Z,11.05
2023-05-19T10:14:28.477Z,10.15
2023-05-19T10:16:57.800Z,9.75
2023-05-19T10:19:27.835Z,17.83
2023-05-19T10:21:56.305Z,9.00
2023-05-19T10:24:23.427Z,8.65
2023-05-19T10:26:54.111Z,10.27
2023-05-19T10:29:28.214Z,13.43
2023-05-19T10:32:01.245Z,15.00
2023-05-19T10:35:09.336Z,7.68
2023-05-19T10:38:16.494Z,13.73
2023-05-19T10:41:11.676Z,13.00
2023-05-19T10:44:00.507Z,11.55
2023-05-19T10:46:28.652Z,14.80
2023-05-19T10:48:56.050Z,8.70
2023-05-19T10:51:32.533Z,10.73
2023-05-19T10:54:03.276Z,12.20
2023-05-19T10:56:36.414Z,8.27
2023-05-19T10:59:04.208Z,13.38
2023-05-19T11:01:39.000Z,15.32
2023-05-19T11:04:12.453Z,10.10
2023-05-19T11:06:40.808Z,10.18
2023-05-19T11:09:14.558Z,10.90
2023-05-19T11:11:46.342Z,11.85
2023-05-19T11:14:15.100Z,9.48
2023-05-19T11:16:43.206Z,11.05
2023-05-19T11:19:20.053Z,13.70
2023-05-19T11:21:57.624Z,15.35
2023-05-19T11:24:36.099Z,11.55
2023-05-19T11:27:31.260Z,12.02
2023-05-19T11:30:14.526Z,12.75
2023-05-19T11:32:42.940Z,11.20
2023-05-19T11:35:11.156Z,11.38
2023-05-19T11:37:40.513Z,13.85
2023-05-19T11:40:08.396Z,12.65
2023-05-19T11:42:37.032Z,17.30
2023-05-19T11:45:06.099Z,9.40
2023-05-19T11:47:42.573Z,10.23
2023-05-19T11:50:20.649Z,11.20
2023-05-19T11:52:47.950Z,7.20
2023-05-19T11:55:25.324Z,12.05
2023-05-19T11:58:04.738Z,17.40
2023-05-19T12:00:39.092Z,12.38
2023-05-19T12:03:07.163Z,15.02
2023-05-19T12:05:42.961Z,13.35
2023-05-19T12:08:11.814Z,9.77
2023-05-19T12:10:40.283Z,9.40
2023-05-19T12:13:10.653Z,7.63
2023-05-19T12:15:38.938Z,10.15
2023-05-19T12:18:06.773Z,6.10
2023-05-19T12:20:36.286Z,11.55
2023-05-19T12:23:04.225Z,7.60
2023-05-19T12:25:32.053Z,12.02
2023-05-19T12:28:05.513Z,10.75
2023-05-19T12:30:34.725Z,6.28
2023-05-19T12:33:03.407Z,10.30
2023-05-19T12:35:34.258Z,10.32
2023-05-19T12:38:06.266Z,11.20
2023-05-19T12:40:37.806Z,7.15
2023-05-19T12:43:06.890Z,9.20
2023-05-19T12:45:38.324Z,7.45
2023-05-19T12:48:11.657Z,13.80
2023-05-19T12:50:39.087Z,9.70
2023-05-19T12:53:10.736Z,17.83
2023-05-19T12:55:45.430Z,10.23
2023-05-19T12:58:13.363Z,16.75
2023-05-19T13:00:47.330Z,8.02
2023-05-19T13:03:20.559Z,11.02
2023-05-19T13:05:51.000Z,11.02
2023-05-19T13:08:21.635Z,15.82
2023-05-19T13:10:51.810Z,12.02
2023-05-19T13:13:19.408Z,6.88
2023-05-19T13:15:50.625Z,9.13
2023-05-19T13:18:18.328Z,6.25
2023-05-19T13:20:47.199Z,7.80
2023-05-19T13:23:14.956Z,9.75
2023-05-19T13:25:42.806Z,10.73
2023-05-19T13:28:10.506Z,10.15
2023-05-19T13:30:43.549Z,8.95
2023-05-19T13:33:11.554Z,7.00
2023-05-19T13:35:39.193Z,8.90
2023-05-19T13:38:09.621Z,10.98
2023-05-19T13:40:37.343Z,10.63
2023-05-19T13:43:04.861Z,8.93
2023-05-19T13:45:31.996Z,9.27
2023-05-19T13:47:59.116Z,8.55
2023-05-19T13:50:26.524Z,13.43
2023-05-19T13:52:53.925Z,8.52
2023-05-19T13:55:21.260Z,11.60
2023-05-19T13:57:48.305Z,7.85
2023-05-19T14:00:16.054Z,6.38
2023-05-19T14:02:43.303Z,9.65
2023-05-19T14:05:10.628Z,6.47
2023-05-19T14:07:38.437Z,14.38
2023-05-19T14:10:06.942Z,9.88
2023-05-19T14:12:45.068Z,16.60
2023-05-19T14:15:20.141Z,6.20
2023-05-19T14:17:49.030Z,10.13
2023-05-19T14:20:16.290Z,7.70
2023-05-19T14:22:43.413Z,7.68
2023-05-19T14:25:10.636Z,11.90
2023-05-19T14:27:39.911Z,6.10
2023-05-19T14:30:08.579Z,5.20
2023-05-19T14:32:36.103Z,8.57
2023-05-19T14:35:03.579Z,11.40
2023-05-19T14:37:32.015Z,10.15
2023-05-19T14:39:59.588Z,10.32
2023-05-19T14:42:26.717Z,7.00
2023-05-19T14:44:53.886Z,7.57
2023-05-19T14:47:21.040Z,9.15
2023-05-19T14:49:48.203Z,7.20
2023-05-19T14:52:15.326Z,11.18
2023-05-19T14:54:42.493Z,8.90
2023-05-19T14:57:09.527Z,8.40
2023-05-19T14:59:39.821Z,8.00
2023-05-19T15:02:07.200Z,10.05
2023-05-19T15:04:34.271Z,11.85
2023-05-19T15:09:31.827Z,16.42
2023-05-19T15:12:01.302Z,10.27
2023-05-19T15:14:30.518Z,9.98
2023-05-19T15:16:59.337Z,7.78
2023-05-19T15:19:26.946Z,8.15
2023-05-19T15:21:54.324Z,11.63
2023-05-19T15:24:21.523Z,11.75
2023-05-19T15:26:48.788Z,11.32
2023-05-19T15:29:15.932Z,7.47
2023-05-19T15:31:43.251Z,9.63
2023-05-19T15:34:10.439Z,8.57
2023-05-19T15:36:37.503Z,7.35
2023-05-19T15:39:05.148Z,14.65
2023-05-19T15:41:32.272Z,8.90
2023-05-19T15:44:02.797Z,8.10
2023-05-19T15:46:30.576Z,10.20
2023-05-19T15:48:57.723Z,7.68
2023-05-19T15:51:24.971Z,13.20
2023-05-19T15:53:52.994Z,11.00
2023-05-19T15:56:20.074Z,9.52
2023-05-19T15:58:47.338Z,10.90
2023-05-19T16:01:15.664Z,10.38
2023-05-19T16:03:43.704Z,10.35
2023-05-19T16:06:11.078Z,10.25
2023-05-19T16:08:38.231Z,9.43
2023-05-19T16:11:05.676Z,10.15
2023-05-19T16:13:33.893Z,11.90
2023-05-19T16:16:01.113Z,9.00
2023-05-19T16:18:29.340Z,10.02
2023-05-19T16:20:56.679Z,11.15
2023-05-19T16:23:24.827Z,12.98
2023-05-19T16:25:52.355Z,14.88
2023-05-19T16:28:19.547Z,9.85
2023-05-19T16:30:46.707Z,11.38
2023-05-19T16:33:13.798Z,18.08
2023-05-19T16:35:40.937Z,12.30
2023-05-19T16:38:08.206Z,8.10
2023-05-19T16:40:35.777Z,13.38
2023-05-19T16:43:02.996Z,9.38
2023-05-19T16:45:30.059Z,10.98
2023-05-19T16:47:57.148Z,16.30
2023-05-19T16:50:24.278Z,12.00
2023-05-19T16:52:51.308Z,12.07
2023-05-19T16:55:20.104Z,10.82
2023-05-19T16:57:47.429Z,8.55
2023-05-19T17:00:15.659Z,9.73
2023-05-19T17:02:42.902Z,9.07
2023-05-19T17:05:10.211Z,9.60
2023-05-19T17:07:37.274Z,14.13
2023-05-19T17:10:04.842Z,8.15
2023-05-19T17:12:31.910Z,12.02
2023-05-19T17:14:58.981Z,14.90
2023-05-19T17:17:26.212Z,9.93
2023-05-19T17:19:54.517Z,9.85
2023-05-19T17:22:21.548Z,9.40
2023-05-19T17:24:48.617Z,11.45
2023-05-19T17:27:15.673Z,7.18
2023-05-19T17:29:42.785Z,8.60
2023-05-19T17:32:09.851Z,11.88
2023-05-19T17:34:36.989Z,8.90
2023-05-19T17:37:09.761Z,9.52
2023-05-19T17:39:36.780Z,11.40
2023-05-19T17:42:04.620Z,13.48
2023-05-19T17:44:31.664Z,14.68
2023-05-19T17:46:58.786Z,11.70
2023-05-19T17:49:26.177Z,9.65
2023-05-19T17:51:53.771Z,10.23
2023-05-19T17:54:22.109Z,12.38
2023-05-19T17:56:50.945Z,18.77
2023-05-19T17:59:18.423Z,11.32
2023-05-19T18:01:46.386Z,13.50
2023-05-19T18:04:15.402Z,11.95
2023-05-19T18:06:46.053Z,12.25
2023-05-19T18:09:16.488Z,9.88
2023-05-19T18:11:43.500Z,8.73
2023-05-19T18:14:10.934Z,11.02
2023-05-19T18:16:38.353Z,9.85
2023-05-19T18:19:05.438Z,10.68
2023-05-19T18:21:32.608Z,11.70
2023-05-19T18:24:04.354Z,10.40
2023-05-19T18:26:33.155Z,9.30
2023-05-19T18:29:02.819Z,10.35
2023-05-19T18:31:29.965Z,10.02
2023-05-19T18:33:57.079Z,12.43
2023-05-19T18:36:24.102Z,9.48
2023-05-19T18:38:51.073Z,15.00
2023-05-19T18:41:18.436Z,15.63
2023-05-19T18:43:45.784Z,10.65
2023-05-19T18:46:13.618Z,10.95
2023-05-19T18:48:40.862Z,10.27
2023-05-19T18:51:09.443Z,12.50
2023-05-19T18:53:37.294Z,12.77
2023-05-19T18:56:04.743Z,11.77
2023-05-19T18:58:32.250Z,13.23
2023-05-19T19:00:59.435Z,13.00
2023-05-19T19:03:26.769Z,11.77
2023-05-19T19:05:58.143Z,9.52
2023-05-19T19:08:25.679Z,12.02
2023-05-19T19:10:53.579Z,14.98
2023-05-19T19:13:21.119Z,9.90
2023-05-19T19:15:48.151Z,16.42
2023-05-19T19:18:15.174Z,13.88
2023-05-19T19:20:42.374Z,13.18
2023-05-19T19:23:09.382Z,15.48
2023-05-19T19:25:36.607Z,13.25
2023-05-19T19:28:04.094Z,10.70
2023-05-19T19:30:31.243Z,16.40
2023-05-19T19:32:59.504Z,11.50
2023-05-19T19:35:26.609Z,13.48
2023-05-19T19:37:53.809Z,16.45
2023-05-19T19:40:20.914Z,15.82
2023-05-19T19:42:47.967Z,14.15
2023-05-19T19:45:15.780Z,11.52
2023-05-19T19:47:43.130Z,10.80
2023-05-19T19:50:11.515Z,16.05
2023-05-19T19:52:38.659Z,13.38
2023-05-19T19:55:07.046Z,14.45
2023-05-19T19:57:34.360Z,12.38
2023-05-19T20:00:07.932Z,13.43
2023-05-19T20:02:51.694Z,11.18
2023-05-19T20:05:26.816Z,13.32
2023-05-19T20:07:54.191Z,13.02
2023-05-19T20:10:21.622Z,16.98
2023-05-19T20:12:50.565Z,21.40
2023-05-19T20:15:17.851Z,20.33
2023-05-19T20:17:44.917Z,18.08
2023-05-19T20:20:12.708Z,12.68
2023-05-19T20:22:40.186Z,13.48
2023-05-19T20:25:07.918Z,10.45
2023-05-19T20:27:34.968Z,14.00
2023-05-19T20:30:02.000Z,11.65
2023-05-19T20:32:29.160Z,13.23
2023-05-19T20:34:56.620Z,10.50
2023-05-19T20:37:23.808Z,19.73
2023-05-19T20:39:50.859Z,14.98
2023-05-19T20:42:17.855Z,13.55
2023-05-19T20:44:45.075Z,10.10
2023-05-19T20:47:12.333Z,11.88
2023-05-19T20:49:39.399Z,13.43
2023-05-19T20:52:06.787Z,14.02
2023-05-19T20:54:34.026Z,15.88
2023-05-19T20:57:06.352Z,10.60
2023-05-19T20:59:33.681Z,15.95
2023-05-19T21:02:00.831Z,16.05
2023-05-19T21:04:28.082Z,13.05
2023-05-19T21:06:55.207Z,18.63
2023-05-19T21:09:22.558Z,13.93
2023-05-19T21:11:49.630Z,14.05
2023-05-19T21:14:16.697Z,13.75
2023-05-19T21:16:43.790Z,15.70
2023-05-19T21:19:11.006Z,15.63
2023-05-19T21:21:41.838Z,12.27
2023-05-19T21:24:11.530Z,12.55
2023-05-19T21:26:39.322Z,12.95
2023-05-19T21:29:06.944Z,14.73
2023-05-19T21:31:35.445Z,15.50
2023-05-19T21:34:04.095Z,13.50
2023-05-19T21:36:31.816Z,13.30
2023-05-19T21:38:58.917Z,14.55
2023-05-19T21:41:26.052Z,15.05
2023-05-19T21:43:53.173Z,14.07
2023-05-19T21:46:20.295Z,14.85
2023-05-19T21:48:47.375Z,16.30
2023-05-19T21:51:14.450Z,18.10
2023-05-19T21:53:41.878Z,16.25
2023-05-19T21:56:08.923Z,17.08
2023-05-19T21:58:36.088Z,13.77
2023-05-19T22:01:03.640Z,13.20
2023-05-19T22:03:30.801Z,13.85
2023-05-19T22:05:57.942Z,15.30
2023-05-19T22:08:26.075Z,14.45
2023-05-19T22:10:53.610Z,14.88
2023-05-19T22:13:21.553Z,13.23
2023-05-19T22:15:48.673Z,22.08
2023-05-19T22:18:15.805Z,16.35
2023-05-19T22:20:43.228Z,14.52
2023-05-19T22:23:11.400Z,11.43
2023-05-19T22:25:38.448Z,15.35
2023-05-19T22:28:07.923Z,11.68
2023-05-19T22:30:42.339Z,13.52
2023-05-19T22:33:11.355Z,15.23
2023-05-19T22:35:38.610Z,10.73
2023-05-19T22:38:06.454Z,12.57
2023-05-19T22:40:34.696Z,14.35
2023-05-19T22:43:01.996Z,13.88
2023-05-19T22:45:29.119Z,11.85
2023-05-19T22:47:56.260Z,11.68
2023-05-19T22:50:23.385Z,10.43
2023-05-19T22:52:50.606Z,15.77
2023-05-19T22:55:17.720Z,8.88
2023-05-19T22:57:44.964Z,9.48
2023-05-19T23:00:14.386Z,12.90
2023-05-19T23:02:44.713Z,17.27
2023-05-19T23:05:11.822Z,12.50
2023-05-19T23:07:38.916Z,13.93
2023-05-19T23:10:07.658Z,10.13
2023-05-19T23:12:34.895Z,10.75
2023-05-19T23:15:02.337Z,11.55
2023-05-19T23:17:29.411Z,11.20
2023-05-19T23:19:56.546Z,13.63
2023-05-19T23:22:23.655Z,11.20
2023-05-19T23:24:50.856Z,14.77
2023-05-19T23:27:17.886Z,16.60
2023-05-19T23:29:49.530Z,17.55
2023-05-19T23:32:16.716Z,14.95
2023-05-19T23:34:43.980Z,11.10
2023-05-19T23:37:11.788Z,14.73
2023-05-19T23:39:38.894Z,13.63
2023-05-19T23:42:06.279Z,13.77
2023-05-19T23:44:33.386Z,10.05
2023-05-19T23:47:00.582Z,10.68
2023-05-19T23:49:27.756Z,7.70
2023-05-19T23:51:54.879Z,11.20
2023-05-19T23:54:22.048Z,8.88
2023-05-19T23:56:49.081Z,10.45
2023-05-19T23:59:16.121Z,7.78
